createdAt,value
2023-12-23T00:04:17.130Z,17.60
2023-12-23T00:14:19.223Z,17.60
2023-12-23T00:24:21.524Z,17.60
2023-12-23T00:34:23.562Z,17.60
2023-12-23T00:44:25.561Z,17.60
2023-12-23T00:54:27.587Z,17.50
2023-12-23T01:04:29.664Z,17.50
2023-12-23T01:14:31.647Z,17.50
2023-12-23T01:24:33.650Z,17.50
2023-12-23T01:34:37.066Z,17.50
2023-12-23T01:44:39.108Z,17.40
2023-12-23T01:54:41.781Z,17.40
2023-12-23T02:04:44.115Z,17.40
2023-12-23T02:14:55.839Z,17.40
2023-12-23T02:24:57.956Z,17.40
2023-12-23T02:35:00.384Z,17.30
2023-12-23T02:45:04.390Z,17.30
2023-12-23T02:55:07.260Z,17.30
2023-12-23T03:05:10.717Z,17.40
2023-12-23T03:15:12.890Z,17.40
2023-12-23T03:25:14.929Z,17.40
2023-12-23T03:35:17.208Z,17.40
2023-12-23T03:45:20.207Z,17.40
2023-12-23T03:55:22.434Z,17.40
2023-12-23T04:05:24.532Z,17.40
2023-12-23T04:15:26.581Z,17.40
2023-12-23T04:25:29.503Z,17.30
2023-12-23T04:35:31.763Z,17.30
2023-12-23T04:45:33.809Z,17.40
2023-12-23T04:55:35.974Z,17.40
2023-12-23T05:05:38.376Z,17.40
2023-12-23T05:15:40.706Z,17.40
2023-12-23T05:25:42.762Z,17.40
2023-12-23T05:35:44.896Z,17.50
2023-12-23T05:45:47.021Z,17.50
2023-12-23T05:55:49.180Z,17.80
2023-12-23T06:15:53.293Z,18.70
2023-12-23T06:25:55.677Z,18.90
2023-12-23T06:35:57.698Z,19.00
2023-12-23T06:46:01.036Z,19.20
2023-12-23T06:56:09.362Z,19.20
2023-12-23T07:06:14.815Z,19.10
2023-12-23T07:16:17.609Z,19.10
2023-12-23T07:26:19.793Z,19.10
2023-12-23T07:36:21.954Z,19.00
2023-12-23T07:46:23.974Z,18.90
2023-12-23T07:56:26.676Z,18.90
2023-12-23T08:06:28.824Z,18.80
2023-12-23T08:16:31.352Z,18.80
2023-12-23T08:26:34.802Z,18.70
2023-12-23T08:36:36.866Z,18.60
2023-12-23T08:46:38.833Z,18.50
2023-12-23T08:56:40.812Z,18.50
2023-12-23T09:06:42.809Z,18.50
2023-12-23T09:16:44.902Z,18.50
2023-12-23T09:26:47.044Z,18.40
2023-12-23T09:36:49.089Z,18.40
2023-12-23T09:46:51.798Z,18.40
2023-12-23T09:56:53.898Z,18.30
2023-12-23T10:06:56.341Z,18.30
2023-12-23T10:16:58.674Z,18.40
2023-12-23T10:27:01.016Z,18.40
2023-12-23T10:37:03.494Z,18.50
2023-12-23T10:47:08.189Z,18.50
2023-12-23T10:57:11.454Z,18.50
2023-12-23T11:07:17.482Z,18.60
2023-12-23T11:17:25.649Z,18.60
2023-12-23T11:27:38.082Z,18.60
2023-12-23T11:38:02.807Z,18.50
2023-12-23T11:48:08.430Z,18.50
2023-12-23T11:58:10.812Z,18.50
2023-12-23T12:08:12.823Z,18.50
2023-12-23T12:18:17.250Z,18.60
2023-12-23T12:28:19.944Z,18.60
2023-12-23T12:38:24.288Z,18.60
2023-12-23T12:48:30.740Z,18.60
2023-12-23T12:58:32.755Z,18.60
2023-12-23T13:08:34.872Z,18.60
2023-12-23T13:18:46.109Z,18.60
2023-12-23T13:28:55.316Z,18.60
2023-12-23T13:38:57.416Z,18.60
2023-12-23T13:48:59.611Z,18.60
2023-12-23T13:59:01.893Z,18.60
2023-12-23T14:09:04.735Z,18.60
2023-12-23T14:19:06.801Z,18.60
2023-12-23T14:29:08.807Z,18.60
2023-12-23T14:39:10.841Z,18.50
2023-12-23T14:49:13.366Z,18.50
2023-12-23T14:59:15.519Z,18.50
2023-12-23T15:09:17.816Z,18.50
2023-12-23T15:19:19.866Z,18.50
2023-12-23T15:29:22.021Z,18.50
2023-12-23T15:39:24.045Z,18.50
2023-12-23T15:49:26.284Z,18.50
2023-12-23T15:59:28.316Z,18.50
2023-12-23T16:09:30.318Z,18.50
2023-12-23T16:19:35.880Z,18.50
2023-12-23T16:29:42.614Z,18.50
2023-12-23T16:39:44.636Z,18.50
2023-12-23T16:49:46.720Z,18.50
2023-12-23T16:59:48.769Z,18.60
2023-12-23T17:09:50.738Z,18.60
2023-12-23T17:19:52.885Z,18.60
2023-12-23T17:29:54.967Z,18.70
2023-12-23T17:39:56.941Z,18.70
2023-12-23T17:49:58.995Z,18.70
2023-12-23T18:00:01.054Z,18.70
2023-12-23T18:10:04.346Z,18.70
2023-12-23T18:20:07.257Z,18.70
2023-12-23T18:30:09.858Z,18.70
2023-12-23T18:40:12.089Z,18.70
2023-12-23T18:50:14.100Z,18.70
2023-12-23T19:00:16.309Z,18.70
2023-12-23T19:10:18.392Z,18.70
2023-12-23T19:20:21.482Z,18.70
2023-12-23T19:30:24.387Z,18.80
2023-12-23T19:40:26.483Z,18.70
2023-12-23T19:50:28.482Z,18.70
2023-12-23T20:00:30.560Z,18.70
2023-12-23T20:10:33.669Z,18.70
2023-12-23T20:20:35.909Z,18.70
2023-12-23T20:30:39.904Z,18.80
2023-12-23T20:40:42.214Z,18.80
2023-12-23T20:50:44.818Z,18.70
2023-12-23T21:00:46.831Z,18.80
2023-12-23T21:10:48.894Z,18.80
2023-12-23T21:20:50.879Z,18.80
2023-12-23T21:30:54.639Z,18.70
2023-12-23T21:40:56.727Z,18.70
2023-12-23T21:50:58.731Z,18.70
2023-12-23T22:01:02.104Z,18.70
2023-12-23T22:11:04.446Z,18.70
2023-12-23T22:21:06.931Z,18.70
2023-12-23T22:31:09.981Z,18.70
2023-12-23T22:41:12.018Z,18.70
2023-12-23T22:51:14.172Z,18.60
2023-12-23T23:01:16.770Z,18.60
2023-12-23T23:11:18.842Z,18.60
2023-12-23T23:21:21.900Z,18.60
2023-12-23T23:31:24.851Z,18.60
2023-12-23T23:41:26.970Z,18.60
2023-12-23T23:51:29.066Z,18.60
